Flight Track Log - Related Links

Times and Time Zones

All times are in EDT time to prevent confusion due to time zone crossing. See the GJS3710 flight status page for this flight to view local times or setup timezone preferences in your user account.

Time Position Orientation Groundspeed Altitude Reporting Facility
EDT Latitude Longitude Course Direction KTS MPH feet Rate Location/Type
Sun 10:34:37 PM 42.0500 -87.9000 80° East 194 223 3,500  Level Chicago TRACON
Sun 10:35:37 PM 42.1167 -87.8667 20° North 236 272 5,800 2,129 Climbing Chicago TRACON
Sun 10:36:00 PM 42.0347 -87.4458 66° East  Level Estimated
Sun 10:36:10 PM 42.1425 -87.8442 33° Northeast 250 288 6,800  Level Chicago Center
Sun 10:37:00 PM 42.0519 -87.2921 66° East  Level Estimated
Sun 10:37:11 PM 42.1772 -87.7581 61° Northeast 267 307 9,600  Level Chicago Center
Sun 10:38:00 PM 42.0690 -87.1382 86° East  Level Estimated
Sun 10:38:12 PM 42.1928 -87.6492 79° East 290 334 12,100  Level Chicago Center
Sun 10:39:00 PM 42.1281 -87.0044 59° Northeast  Level FlightAware Approximate
Sun 10:39:14 PM 42.2100 -87.5367 78° East 304 350 14,500  Level Chicago Center
Sun 10:40:00 PM 42.1437 -86.8554 80° East  Level Estimated
Sun 10:40:14 PM 42.2278 -87.4156 79° East 323 372 16,500  Level Chicago Center
Sun 10:41:15 PM 42.2475 -87.2867 78° East 347 399 18,000 1,122 Climbing Chicago Center
Sun 10:42:17 PM 42.2681 -87.1433 79° East 379 436 18,800 1,171 Climbing Chicago Center
Sun 10:43:18 PM 42.2828 -86.9897 83° East 408 470 20,400 1,525 Climbing Chicago Center
Sun 10:44:19 PM 42.2875 -86.8317 88° East 420 483 21,900 1,525 Climbing Chicago Center
Sun 10:45:20 PM 42.2947 -86.6497 87° East 436 502 23,500 1,426 Climbing Chicago Center
Sun 10:46:21 PM 42.3008 -86.4900 87° East 448 516 24,800 1,230 Climbing Chicago Center
Sun 10:47:22 PM 42.3072 -86.3217 87° East 452 520 26,000 1,230 Climbing Chicago Center
Sun 10:48:23 PM 42.3136 -86.1153 88° East 462 532 27,300 1,180 Climbing Chicago Center
Sun 10:49:24 PM 42.3133 -85.9383 90° East 472 543 28,400 1,033 Climbing Chicago Center
Sun 10:50:25 PM 42.3111 -85.7578 91° East 483 556 29,400 984 Climbing Chicago Center
Sun 10:51:26 PM 42.3089 -85.5742 91° East 489 563 30,400 984 Climbing Chicago Center
Sun 10:52:27 PM 42.3069 -85.3911 91° East 491 565 31,400 1,082 Climbing Chicago Center
Sun 10:53:28 PM 42.3039 -85.2078 91° East 491 565 32,600 1,131 Climbing Chicago Center
Sun 10:54:29 PM 42.3006 -85.0258 91° East 489 563 33,700 1,033 Climbing Chicago Center
Sun 10:55:30 PM 42.2964 -84.8467 92° East 482 555 34,700 984 Climbing Chicago Center
Sun 10:56:31 PM 42.2917 -84.6672 92° East 481 554 35,700 984 Climbing Chicago Center
Sun 10:57:32 PM 42.2878 -84.4906 92° East 475 547 36,700 908 Climbing Chicago Center
Sun 10:58:30 PM 42.3108 -84.3014 81° East 473 544 37,500 807 Climbing Cleveland Center
Sun 10:59:31 PM 42.3347 -84.1319 79° East 463 533 38,300 645 Climbing Cleveland Center
Sun 11:00:31 PM 42.3581 -83.9619 79° East 459 528 38,800 347 Climbing Cleveland Center
Sun 11:01:32 PM 42.3811 -83.7914 80° East 460 529 39,000 98 Climbing Cleveland Center
Sun 11:02:33 PM 42.4047 -83.6164 80° East 466 536 39,000  Level Cleveland Center
Sun 11:03:34 PM 42.4142 -83.4400 86° East 477 549 39,000  Level Cleveland Center
Sun 11:04:35 PM 42.4197 -83.2558 88° East 484 557 39,000  Level Cleveland Center
Sun 11:05:36 PM 42.4261 -83.0617 87° East 486 559 39,000  Level Cleveland Center
Sun 11:06:37 PM 42.4319 -82.8775 87° East 488 562 39,000  Level Cleveland Center
Sun 11:07:38 PM 42.4375 -82.6922 88° East 493 567 39,000  Level Cleveland Center
Sun 11:08:38 PM 42.4433 -82.5081 87° East 491 565 39,000  Level Cleveland Center
Sun 11:09:39 PM 42.4483 -82.3236 88° East 491 565 39,000  Level Cleveland Center
Sun 11:10:40 PM 42.4536 -82.1397 88° East 488 562 39,000  Level Cleveland Center
Sun 11:11:41 PM 42.4578 -81.9600 88° East 485 558 39,000  Level Cleveland Center
Sun 11:12:42 PM 42.4622 -81.7750 88° East 478 550 39,000  Level Cleveland Center
Sun 11:13:42 PM 42.4653 -81.5947 89° East 475 547 39,000  Level Cleveland Center
Sun 11:14:43 PM 42.4689 -81.4147 88° East 472 543 39,000  Level Cleveland Center
Sun 11:15:44 PM 42.4728 -81.2367 88° East 471 542 39,000  Level Cleveland Center
Sun 11:16:45 PM 42.4756 -81.0586 89° East 469 540 39,000  Level Cleveland Center
Sun 11:17:45 PM 42.4778 -80.8814 89° East 467 537 39,000  Level Cleveland Center
Sun 11:18:46 PM 42.4800 -80.7044 89° East 466 536 39,000  Level Cleveland Center
Sun 11:19:47 PM 42.4831 -80.5294 89° East 462 532 39,000  Level Cleveland Center
Sun 11:20:47 PM 42.4842 -80.3517 89° East 465 535 39,000  Level Cleveland Center
Sun 11:21:48 PM 42.4867 -80.1744 89° East 466 536 39,000  Level Cleveland Center
Sun 11:22:49 PM 42.4875 -79.9761 90° East 468 539 39,000  Level Cleveland Center
Sun 11:23:49 PM 42.4886 -79.8300 89° East 464 534 39,000  Level Cleveland Center
Sun 11:24:50 PM 42.4892 -79.6208 90° East 465 535 39,000  Level Cleveland Center
Sun 11:25:50 PM 42.4908 -79.4472 89° East 463 533 39,000  Level Cleveland Center
Sun 11:26:51 PM 42.4897 -79.2736 90° East 463 533 39,000  Level Cleveland Center
Sun 11:27:52 PM 42.5019 -79.1019 84° East 462 532 39,000  Level Cleveland Center
Sun 11:28:52 PM 42.5142 -78.9300 84° East 461 531 39,000  Level Cleveland Center
Sun 11:29:53 PM 42.5258 -78.7575 85° East 460 529 39,000  Level Cleveland Center
Sun 11:30:53 PM 42.5361 -78.5872 85° East 456 525 39,000  Level Cleveland Center
Sun 11:31:54 PM 42.5489 -78.4181 84° East 452 520 39,000  Level Cleveland Center
Sun 11:32:54 PM 42.5592 -78.2461 85° East 456 525 39,000  Level Cleveland Center
Sun 11:33:55 PM 42.5697 -78.0736 85° East 460 529 39,000  Level Cleveland Center
Sun 11:34:55 PM 42.5794 -77.9006 86° East 462 532 39,000 -545 Level Cleveland Center
Sun 11:35:56 PM 42.5903 -77.7222 85° East 470 541 37,900 -1,041 Descending Cleveland Center
Sun 11:36:56 PM 42.6000 -77.5383 86° East 485 558 36,900 -992 Descending Cleveland Center
Sun 11:37:57 PM 42.6122 -77.3333 85° East 489 563 35,900 -992 Descending Cleveland Center
Sun 11:38:57 PM 42.6219 -77.1494 86° East 491 565 34,900 -960 Descending Cleveland Center
Sun 11:40:02 PM 42.6314 -76.9589 86° East 485 558 33,900 -968 Descending Boston Center
Sun 11:41:01 PM 42.6428 -76.7792 85° East 474 545 32,900 -1,140 Descending Boston Center
Sun 11:42:03 PM 42.6494 -76.6017 87° East 474 545 31,600 -1,574 Descending Boston Center
Sun 11:43:03 PM 42.6581 -76.4186 86° East 474 545 29,700 -1,815 Descending Boston Center
Sun 11:44:02 PM 42.6683 -76.2414 85° East 474 545 28,000 -1,866 Descending Boston Center
Sun 11:45:02 PM 42.6742 -76.0636 87° East 474 545 26,000 -1,916 Descending Boston Center
Sun 11:46:01 PM 42.6814 -75.8917 87° East 468 539 24,200 -1,785 Descending Boston Center
Sun 11:47:03 PM 42.6886 -75.7253 87° East 456 525 22,400 -1,785 Descending Boston Center
Sun 11:48:02 PM 42.6931 -75.5644 88° East 432 497 20,600 -1,831 Descending Boston Center
Sun 11:49:01 PM 42.7014 -75.4094 86° East 419 482 18,800 -1,563 Descending Boston Center
Sun 11:50:01 PM 42.7072 -75.2572 87° East 414 476 17,500 -1,388 Descending Boston Center
Sun 11:51:02 PM 42.7108 -75.1106 88° East 395 455 16,000 -1,488 Descending Boston Center
Sun 11:52:02 PM 42.7142 -74.9692 88° East 381 438 14,500 -1,538 Descending Boston Center
Sun 11:52:20 PM 42.7150 -74.9242 89° East 371 427 14,000 -1,750 Descending Boston Center
Sun 11:52:26 PM 42.7153 -74.9100 88° East 369 425 13,800 -1,317 Descending Boston Center
Sun 11:53:01 PM 42.7211 -74.8339 84° East 370 426 13,100 -1,161 Descending Boston Center
Sun 11:53:28 PM 42.7181 -74.7772 94° East 351 404 12,600 -1,000 Descending Boston Center
Sun 11:54:01 PM 42.7219 -74.6983 86° East 355 409 12,100 -1,000 Descending Boston Center
Sun 11:54:28 PM 42.7250 -74.6503 85° East 339 390 11,600 -1,082 Descending Boston Center
Sun 11:55:02 PM 42.7264 -74.5683 89° East 348 400 11,000 -600 Descending Boston Center
Sun 11:55:28 PM 42.7294 -74.5175 85° East 344 396 11,000 -100 Level Boston Center
Sun 11:56:02 PM 42.7328 -74.4442 86° East 343 395 10,900 -787 Descending Boston Center
Sun 11:56:29 PM 42.7419 -74.4050 72° East 301 346 10,200 -1,525 Descending Boston Center
Sun 11:57:01 PM 42.7514 -74.3375 79° East 302 348 9,400 -1,525 Descending Boston Center
Sun 11:57:28 PM 42.7606 -74.2894 75° East 274 315 8,700 -1,279 Descending Boston Center
Sun 11:58:02 PM 42.7675 -74.2389 79° East 276 318 8,100 -1,333 Descending Boston Center
Sun 11:58:31 PM 42.7767 -74.1911 75° East 263 303 7,300 -1,500 Descending Boston Center
Sun 11:59:02 PM 42.7858 -74.1403 76° East 264 304 6,600 -1,377 Descending Boston Center
Sun 11:59:32 PM 42.7928 -74.0925 79° East 267 307 5,900 -1,082 Descending Boston Center
Mon 12:00:03 AM 42.8017 -74.0558 72° East 259 298 5,500 -1,017 Descending Boston Center
Mon 12:00:31 AM 42.8086 -73.9994 80° East 252 290 4,900 -1,017 Descending Boston Center
Mon 12:01:02 AM 42.8153 -73.9658 75° East 253 291 4,500 -968 Descending Boston Center
Mon 12:01:33 AM 42.8347 -73.9264 56° Northeast 210 242 3,900 -885 Descending Boston Center
Mon 12:02:03 AM 42.8517 -73.9069 40° Northeast 227 261 3,600 -984 Descending Boston Center
Mon 12:02:34 AM 42.8769 -73.8822 36° Northeast 186 214 2,900 -1,241 Descending Boston Center
Mon 12:03:01 AM 42.8794 -73.8483 84° East 176 203 2,400 -1,000 Descending Boston Center
Mon 12:03:34 AM 42.8692 -73.8281 125° Southeast 163 188 1,900 -500 Descending Boston Center
Mon 12:04:01 AM 42.8758 -73.8000 72° East 143 165 1,900 -300 Level Boston Center
Mon 12:04:34 AM 42.8319 -73.8133 193° South 126 145 1,600 -442 Descending Boston Center
Mon 12:05:36 AM 42.7986 -73.8097 175° South 113 130 1,200 -590 Descending Boston Center
Mon 12:06:36 AM 42.7611 -73.8089 179° South 127 146 400 -800 Descending Boston Center

Login

Don't have an account? Register now (free) for customized features, flight alerts, and more!